sensor_id;sensor_type;location;lat;lon;timestamp;pressure;altitude;pressure_sealevel;temperature;humidity
86048;BME280;76643;42.822;23.352;2024-03-29T00:00:53;95302.22;;;9.92;56.01
86048;BME280;76643;42.822;23.352;2024-03-29T00:03:18;95313.78;;;9.85;55.79
86048;BME280;76643;42.822;23.352;2024-03-29T00:05:44;95317.81;;;9.97;55.90
86048;BME280;76643;42.822;23.352;2024-03-29T00:08:10;95315.81;;;10.04;57.04
86048;BME280;76643;42.822;23.352;2024-03-29T00:10:36;95311.06;;;9.96;56.36
86048;BME280;76643;42.822;23.352;2024-03-29T00:13:01;95318.03;;;9.96;56.99
86048;BME280;76643;42.822;23.352;2024-03-29T00:15:26;95312.88;;;9.96;56.71
86048;BME280;76643;42.822;23.352;2024-03-29T00:17:52;95318.03;;;9.96;57.73
86048;BME280;76643;42.822;23.352;2024-03-29T00:20:17;95332.84;;;10.00;58.64
86048;BME280;76643;42.822;23.352;2024-03-29T00:22:43;95326.00;;;9.89;58.60
86048;BME280;76643;42.822;23.352;2024-03-29T00:25:09;95331.19;;;9.89;58.47
86048;BME280;76643;42.822;23.352;2024-03-29T00:27:34;95330.09;;;9.85;59.15
86048;BME280;76643;42.822;23.352;2024-03-29T00:30:00;95339.44;;;9.86;58.58
86048;BME280;76643;42.822;23.352;2024-03-29T00:32:25;95337.56;;;9.60;58.26
86048;BME280;76643;42.822;23.352;2024-03-29T00:34:52;95335.25;;;9.42;58.88
86048;BME280;76643;42.822;23.352;2024-03-29T00:37:18;95342.75;;;9.22;59.74
86048;BME280;76643;42.822;23.352;2024-03-29T00:39:43;95336.94;;;9.31;57.61
86048;BME280;76643;42.822;23.352;2024-03-29T00:42:09;95339.34;;;9.38;57.54
86048;BME280;76643;42.822;23.352;2024-03-29T00:44:38;95329.25;;;9.36;57.80
86048;BME280;76643;42.822;23.352;2024-03-29T00:47:04;95330.69;;;9.49;56.88
86048;BME280;76643;42.822;23.352;2024-03-29T00:49:29;95329.50;;;9.56;56.68
86048;BME280;76643;42.822;23.352;2024-03-29T00:51:55;95342.75;;;9.60;57.40
86048;BME280;76643;42.822;23.352;2024-03-29T00:54:21;95339.13;;;9.61;56.46
86048;BME280;76643;42.822;23.352;2024-03-29T00:56:46;95336.84;;;9.64;56.52
86048;BME280;76643;42.822;23.352;2024-03-29T00:59:11;95332.16;;;9.61;55.79
86048;BME280;76643;42.822;23.352;2024-03-29T01:01:37;95332.69;;;9.63;56.08
86048;BME280;76643;42.822;23.352;2024-03-29T01:04:03;95341.06;;;9.70;56.03
86048;BME280;76643;42.822;23.352;2024-03-29T01:06:29;95339.00;;;9.73;55.53
86048;BME280;76643;42.822;23.352;2024-03-29T01:08:55;95344.47;;;9.76;56.79
86048;BME280;76643;42.822;23.352;2024-03-29T01:11:20;95343.13;;;9.73;56.18
86048;BME280;76643;42.822;23.352;2024-03-29T01:13:46;95348.38;;;9.79;56.90
86048;BME280;76643;42.822;23.352;2024-03-29T01:16:11;95351.53;;;9.81;56.93
86048;BME280;76643;42.822;23.352;2024-03-29T01:18:37;95341.88;;;9.76;56.02
86048;BME280;76643;42.822;23.352;2024-03-29T01:21:02;95331.53;;;9.76;56.77
86048;BME280;76643;42.822;23.352;2024-03-29T01:23:28;95334.84;;;9.71;56.08
86048;BME280;76643;42.822;23.352;2024-03-29T01:25:53;95345.63;;;9.63;56.09
86048;BME280;76643;42.822;23.352;2024-03-29T01:28:18;95350.59;;;9.70;57.49
86048;BME280;76643;42.822;23.352;2024-03-29T01:30:53;95346.09;;;9.60;57.75
86048;BME280;76643;42.822;23.352;2024-03-29T01:33:20;95354.56;;;9.56;57.56
86048;BME280;76643;42.822;23.352;2024-03-29T01:35:46;95365.38;;;9.53;57.48
86048;BME280;76643;42.822;23.352;2024-03-29T01:38:12;95362.19;;;9.46;57.90
86048;BME280;76643;42.822;23.352;2024-03-29T01:40:37;95370.53;;;9.31;57.98
86048;BME280;76643;42.822;23.352;2024-03-29T01:43:03;95371.47;;;9.25;58.67
86048;BME280;76643;42.822;23.352;2024-03-29T01:45:29;95379.56;;;9.12;59.65
86048;BME280;76643;42.822;23.352;2024-03-29T01:47:56;95378.78;;;8.95;60.74
86048;BME280;76643;42.822;23.352;2024-03-29T01:50:21;95380.56;;;8.95;60.48
86048;BME280;76643;42.822;23.352;2024-03-29T01:52:48;95381.91;;;8.97;60.28
86048;BME280;76643;42.822;23.352;2024-03-29T01:55:14;95388.16;;;8.85;61.10
86048;BME280;76643;42.822;23.352;2024-03-29T01:57:40;95393.72;;;8.77;60.73
86048;BME280;76643;42.822;23.352;2024-03-29T02:00:09;95396.75;;;8.57;62.08
86048;BME280;76643;42.822;23.352;2024-03-29T02:02:36;95395.66;;;8.53;61.48
86048;BME280;76643;42.822;23.352;2024-03-29T02:05:02;95397.06;;;8.60;61.84
86048;BME280;76643;42.822;23.352;2024-03-29T02:07:30;95404.88;;;8.49;61.53
86048;BME280;76643;42.822;23.352;2024-03-29T02:09:55;95416.00;;;8.66;61.25
86048;BME280;76643;42.822;23.352;2024-03-29T02:12:21;95411.72;;;8.71;60.71
86048;BME280;76643;42.822;23.352;2024-03-29T02:14:46;95414.00;;;8.85;60.34
86048;BME280;76643;42.822;23.352;2024-03-29T02:17:12;95408.09;;;8.89;60.88
86048;BME280;76643;42.822;23.352;2024-03-29T02:19:37;95418.28;;;8.96;60.13
86048;BME280;76643;42.822;23.352;2024-03-29T02:22:03;95420.25;;;9.05;60.16
86048;BME280;76643;42.822;23.352;2024-03-29T02:24:31;95417.75;;;9.10;59.63
86048;BME280;76643;42.822;23.352;2024-03-29T02:26:57;95426.34;;;9.16;59.55
86048;BME280;76643;42.822;23.352;2024-03-29T02:29:23;95431.63;;;9.21;58.88
86048;BME280;76643;42.822;23.352;2024-03-29T02:31:49;95421.34;;;9.26;58.55
86048;BME280;76643;42.822;23.352;2024-03-29T02:34:15;95429.00;;;9.37;58.90
86048;BME280;76643;42.822;23.352;2024-03-29T02:36:40;95427.13;;;9.33;58.89
86048;BME280;76643;42.822;23.352;2024-03-29T02:39:09;95432.91;;;9.23;58.84
86048;BME280;76643;42.822;23.352;2024-03-29T02:41:34;95438.34;;;9.22;59.52
86048;BME280;76643;42.822;23.352;2024-03-29T02:44:00;95444.03;;;9.24;60.03
86048;BME280;76643;42.822;23.352;2024-03-29T02:46:25;95450.44;;;9.21;60.58
86048;BME280;76643;42.822;23.352;2024-03-29T02:48:51;95449.47;;;9.22;59.93
86048;BME280;76643;42.822;23.352;2024-03-29T02:51:16;95455.38;;;9.23;60.18
86048;BME280;76643;42.822;23.352;2024-03-29T02:53:42;95456.97;;;9.24;60.37
86048;BME280;76643;42.822;23.352;2024-03-29T02:56:07;95466.13;;;9.15;60.36
86048;BME280;76643;42.822;23.352;2024-03-29T02:58:35;95471.03;;;9.00;60.94
86048;BME280;76643;42.822;23.352;2024-03-29T03:01:08;95478.38;;;8.91;60.95
86048;BME280;76643;42.822;23.352;2024-03-29T03:03:34;95473.31;;;8.96;61.42
86048;BME280;76643;42.822;23.352;2024-03-29T03:06:00;95477.06;;;9.05;60.32
86048;BME280;76643;42.822;23.352;2024-03-29T03:08:25;95477.88;;;9.06;60.68
86048;BME280;76643;42.822;23.352;2024-03-29T03:11:09;95481.81;;;8.97;61.45
86048;BME280;76643;42.822;23.352;2024-03-29T03:13:35;95484.56;;;8.90;62.21
86048;BME280;76643;42.822;23.352;2024-03-29T03:16:00;95489.41;;;8.87;61.13
86048;BME280;76643;42.822;23.352;2024-03-29T03:18:26;95495.78;;;8.67;63.05
86048;BME280;76643;42.822;23.352;2024-03-29T03:20:55;95499.16;;;8.68;62.28
86048;BME280;76643;42.822;23.352;2024-03-29T03:23:22;95500.25;;;8.72;62.03
86048;BME280;76643;42.822;23.352;2024-03-29T03:25:58;95494.94;;;8.79;61.35
86048;BME280;76643;42.822;23.352;2024-03-29T03:28:25;95500.91;;;8.79;61.70
86048;BME280;76643;42.822;23.352;2024-03-29T03:30:51;95506.22;;;8.89;62.03
86048;BME280;76643;42.822;23.352;2024-03-29T03:33:17;95517.09;;;8.91;61.11
86048;BME280;76643;42.822;23.352;2024-03-29T03:35:43;95515.88;;;8.94;61.39
86048;BME280;76643;42.822;23.352;2024-03-29T03:38:09;95506.16;;;9.01;61.42
86048;BME280;76643;42.822;23.352;2024-03-29T03:40:35;95514.69;;;9.01;60.62
86048;BME280;76643;42.822;23.352;2024-03-29T03:43:02;95523.47;;;9.00;61.18
86048;BME280;76643;42.822;23.352;2024-03-29T03:45:27;95526.50;;;8.97;61.67
86048;BME280;76643;42.822;23.352;2024-03-29T03:47:53;95538.88;;;8.95;61.10
86048;BME280;76643;42.822;23.352;2024-03-29T03:50:19;95539.19;;;8.99;61.47
86048;BME280;76643;42.822;23.352;2024-03-29T03:52:44;95541.63;;;9.05;61.09
86048;BME280;76643;42.822;23.352;2024-03-29T03:55:10;95556.41;;;9.10;60.64
86048;BME280;76643;42.822;23.352;2024-03-29T03:57:35;95562.50;;;8.87;61.86
86048;BME280;76643;42.822;23.352;2024-03-29T04:00:01;95568.38;;;8.71;62.49
86048;BME280;76643;42.822;23.352;2024-03-29T04:02:28;95557.81;;;8.72;63.21
86048;BME280;76643;42.822;23.352;2024-03-29T04:04:54;95563.84;;;8.78;62.00
86048;BME280;76643;42.822;23.352;2024-03-29T04:07:19;95574.69;;;8.92;61.36
86048;BME280;76643;42.822;23.352;2024-03-29T04:09:45;95580.03;;;8.73;62.68
86048;BME280;76643;42.822;23.352;2024-03-29T04:12:10;95587.72;;;8.57;63.16
86048;BME280;76643;42.822;23.352;2024-03-29T04:14:36;95586.94;;;8.56;62.53
86048;BME280;76643;42.822;23.352;2024-03-29T04:17:02;95596.34;;;8.62;62.76
86048;BME280;76643;42.822;23.352;2024-03-29T04:19:27;95594.31;;;8.64;62.79
86048;BME280;76643;42.822;23.352;2024-03-29T04:21:52;95610.72;;;8.58;63.34
86048;BME280;76643;42.822;23.352;2024-03-29T04:24:18;95608.94;;;8.59;63.26
86048;BME280;76643;42.822;23.352;2024-03-29T04:26:43;95606.78;;;8.56;64.49
86048;BME280;76643;42.822;23.352;2024-03-29T04:29:10;95607.91;;;8.48;63.19
86048;BME280;76643;42.822;23.352;2024-03-29T04:31:35;95620.50;;;8.45;64.04
86048;BME280;76643;42.822;23.352;2024-03-29T04:34:01;95620.47;;;7.99;64.70
86048;BME280;76643;42.822;23.352;2024-03-29T04:36:26;95623.81;;;7.99;65.74
86048;BME280;76643;42.822;23.352;2024-03-29T04:38:52;95627.97;;;7.89;66.27
86048;BME280;76643;42.822;23.352;2024-03-29T04:41:18;95626.53;;;7.93;65.20
86048;BME280;76643;42.822;23.352;2024-03-29T04:43:44;95632.81;;;8.08;64.63
86048;BME280;76643;42.822;23.352;2024-03-29T04:46:13;95632.81;;;8.20;64.96
86048;BME280;76643;42.822;23.352;2024-03-29T04:48:41;95644.59;;;8.27;64.71
86048;BME280;76643;42.822;23.352;2024-03-29T04:51:07;95641.25;;;8.27;65.33
86048;BME280;76643;42.822;23.352;2024-03-29T04:53:37;95646.84;;;8.35;64.95
86048;BME280;76643;42.822;23.352;2024-03-29T04:56:04;95649.66;;;8.57;64.97
86048;BME280;76643;42.822;23.352;2024-03-29T04:58:29;95647.72;;;8.76;64.57
86048;BME280;76643;42.822;23.352;2024-03-29T05:00:55;95655.06;;;8.95;63.75
86048;BME280;76643;42.822;23.352;2024-03-29T05:03:21;95668.84;;;9.12;63.24
86048;BME280;76643;42.822;23.352;2024-03-29T05:05:48;95661.69;;;9.31;62.52
86048;BME280;76643;42.822;23.352;2024-03-29T05:08:14;95657.28;;;9.43;61.82
86048;BME280;76643;42.822;23.352;2024-03-29T05:10:40;95658.50;;;9.68;61.71
86048;BME280;76643;42.822;23.352;2024-03-29T05:13:05;95666.25;;;9.85;61.41
86048;BME280;76643;42.822;23.352;2024-03-29T05:15:31;95663.44;;;10.03;58.92
86048;BME280;76643;42.822;23.352;2024-03-29T05:17:57;95674.53;;;10.15;59.35
86048;BME280;76643;42.822;23.352;2024-03-29T05:20:23;95680.81;;;10.19;59.25
86048;BME280;76643;42.822;23.352;2024-03-29T05:22:48;95690.22;;;10.42;59.07
86048;BME280;76643;42.822;23.352;2024-03-29T05:25:14;95684.59;;;9.84;60.30
86048;BME280;76643;42.822;23.352;2024-03-29T05:27:39;95695.25;;;9.87;59.78
86048;BME280;76643;42.822;23.352;2024-03-29T05:30:05;95697.78;;;9.82;59.08
86048;BME280;76643;42.822;23.352;2024-03-29T05:32:32;95695.00;;;9.44;60.50
86048;BME280;76643;42.822;23.352;2024-03-29T05:34:57;95690.75;;;9.38;61.82
86048;BME280;76643;42.822;23.352;2024-03-29T05:37:23;95699.34;;;9.55;61.43
86048;BME280;76643;42.822;23.352;2024-03-29T05:39:51;95700.28;;;9.21;61.51
86048;BME280;76643;42.822;23.352;2024-03-29T05:42:27;95697.00;;;9.53;62.00
86048;BME280;76643;42.822;23.352;2024-03-29T05:44:53;95698.50;;;9.38;61.19
86048;BME280;76643;42.822;23.352;2024-03-29T05:47:18;95710.94;;;9.52;61.21
86048;BME280;76643;42.822;23.352;2024-03-29T05:49:44;95702.91;;;9.65;60.94
86048;BME280;76643;42.822;23.352;2024-03-29T05:52:09;95706.63;;;9.86;62.50
86048;BME280;76643;42.822;23.352;2024-03-29T05:54:35;95695.53;;;9.57;61.55
86048;BME280;76643;42.822;23.352;2024-03-29T05:57:01;95711.63;;;9.76;60.14
86048;BME280;76643;42.822;23.352;2024-03-29T05:59:26;95702.59;;;10.07;60.18
86048;BME280;76643;42.822;23.352;2024-03-29T06:01:52;95725.03;;;10.34;58.65
86048;BME280;76643;42.822;23.352;2024-03-29T06:04:17;95731.22;;;10.50;58.97
86048;BME280;76643;42.822;23.352;2024-03-29T06:06:46;95722.47;;;10.73;57.50
86048;BME280;76643;42.822;23.352;2024-03-29T06:09:11;95719.19;;;10.77;58.41
86048;BME280;76643;42.822;23.352;2024-03-29T06:11:38;95710.47;;;11.05;57.55
86048;BME280;76643;42.822;23.352;2024-03-29T06:14:03;95705.44;;;11.15;54.79
86048;BME280;76643;42.822;23.352;2024-03-29T06:16:29;95710.84;;;11.35;57.20
86048;BME280;76643;42.822;23.352;2024-03-29T06:19:13;95710.66;;;10.98;56.99
86048;BME280;76643;42.822;23.352;2024-03-29T06:21:38;95714.78;;;11.37;58.03
86048;BME280;76643;42.822;23.352;2024-03-29T06:24:11;95715.78;;;11.58;55.40
86048;BME280;76643;42.822;23.352;2024-03-29T06:26:41;95717.09;;;11.82;53.79
86048;BME280;76643;42.822;23.352;2024-03-29T06:29:07;95718.31;;;12.01;54.02
86048;BME280;76643;42.822;23.352;2024-03-29T06:31:36;95722.50;;;12.07;52.59
86048;BME280;76643;42.822;23.352;2024-03-29T06:34:01;95726.81;;;12.23;53.66
86048;BME280;76643;42.822;23.352;2024-03-29T06:36:27;95715.19;;;12.31;53.36
86048;BME280;76643;42.822;23.352;2024-03-29T06:38:54;95712.03;;;12.29;54.52
86048;BME280;76643;42.822;23.352;2024-03-29T06:41:19;95720.78;;;12.18;53.73
86048;BME280;76643;42.822;23.352;2024-03-29T06:43:45;95711.63;;;12.42;55.33
86048;BME280;76643;42.822;23.352;2024-03-29T06:46:14;95721.50;;;12.82;55.27
86048;BME280;76643;42.822;23.352;2024-03-29T06:48:40;95716.97;;;13.04;55.46
86048;BME280;76643;42.822;23.352;2024-03-29T06:51:06;95715.56;;;13.38;54.79
86048;BME280;76643;42.822;23.352;2024-03-29T06:53:31;95712.00;;;13.74;51.88
86048;BME280;76643;42.822;23.352;2024-03-29T06:56:00;95709.97;;;13.91;51.58
86048;BME280;76643;42.822;23.352;2024-03-29T06:58:25;95707.41;;;14.21;50.54
86048;BME280;76643;42.822;23.352;2024-03-29T07:00:51;95711.28;;;14.04;51.09
86048;BME280;76643;42.822;23.352;2024-03-29T07:03:17;95720.16;;;14.23;50.87
86048;BME280;76643;42.822;23.352;2024-03-29T07:05:44;95719.06;;;13.74;51.99
86048;BME280;76643;42.822;23.352;2024-03-29T07:08:10;95720.09;;;13.78;51.33
86048;BME280;76643;42.822;23.352;2024-03-29T07:10:36;95717.81;;;14.26;50.96
86048;BME280;76643;42.822;23.352;2024-03-29T07:13:02;95722.22;;;14.21;51.48
86048;BME280;76643;42.822;23.352;2024-03-29T07:15:27;95724.63;;;14.48;51.77
86048;BME280;76643;42.822;23.352;2024-03-29T07:17:52;95726.16;;;14.74;50.50
86048;BME280;76643;42.822;23.352;2024-03-29T07:20:19;95721.94;;;15.03;51.50
86048;BME280;76643;42.822;23.352;2024-03-29T07:22:44;95717.69;;;15.27;50.05
86048;BME280;76643;42.822;23.352;2024-03-29T07:25:11;95720.53;;;15.30;49.94
86048;BME280;76643;42.822;23.352;2024-03-29T07:27:36;95720.00;;;15.33;49.34
86048;BME280;76643;42.822;23.352;2024-03-29T07:30:03;95715.53;;;15.49;47.99
86048;BME280;76643;42.822;23.352;2024-03-29T07:32:33;95708.63;;;15.73;48.10
86048;BME280;76643;42.822;23.352;2024-03-29T07:34:58;95705.38;;;15.96;48.43
86048;BME280;76643;42.822;23.352;2024-03-29T07:37:25;95696.31;;;15.79;46.81
86048;BME280;76643;42.822;23.352;2024-03-29T07:39:50;95699.53;;;16.04;48.31
86048;BME280;76643;42.822;23.352;2024-03-29T07:42:16;95697.25;;;16.31;47.56
86048;BME280;76643;42.822;23.352;2024-03-29T07:44:42;95704.16;;;16.56;45.18
86048;BME280;76643;42.822;23.352;2024-03-29T07:47:08;95703.44;;;16.74;46.63
86048;BME280;76643;42.822;23.352;2024-03-29T07:49:33;95702.41;;;16.99;44.38
86048;BME280;76643;42.822;23.352;2024-03-29T07:51:59;95704.81;;;17.19;44.67
86048;BME280;76643;42.822;23.352;2024-03-29T07:54:27;95708.16;;;17.24;42.13
86048;BME280;76643;42.822;23.352;2024-03-29T07:56:53;95705.47;;;17.53;42.17
86048;BME280;76643;42.822;23.352;2024-03-29T07:59:18;95699.25;;;17.86;44.11
86048;BME280;76643;42.822;23.352;2024-03-29T08:01:45;95706.47;;;17.57;43.32
86048;BME280;76643;42.822;23.352;2024-03-29T08:04:11;95704.78;;;17.85;41.64
86048;BME280;76643;42.822;23.352;2024-03-29T08:06:36;95694.78;;;17.50;40.85
86048;BME280;76643;42.822;23.352;2024-03-29T08:09:02;95705.72;;;17.75;41.25
86048;BME280;76643;42.822;23.352;2024-03-29T08:11:27;95696.78;;;17.95;42.08
86048;BME280;76643;42.822;23.352;2024-03-29T08:13:53;95687.00;;;17.82;41.38
86048;BME280;76643;42.822;23.352;2024-03-29T08:16:18;95687.66;;;17.92;39.93
86048;BME280;76643;42.822;23.352;2024-03-29T08:18:45;95687.28;;;17.80;40.67
86048;BME280;76643;42.822;23.352;2024-03-29T08:21:12;95676.66;;;18.09;42.37
86048;BME280;76643;42.822;23.352;2024-03-29T08:23:41;95675.41;;;18.39;41.64
86048;BME280;76643;42.822;23.352;2024-03-29T08:26:10;95676.19;;;18.71;40.78
86048;BME280;76643;42.822;23.352;2024-03-29T08:28:35;95671.16;;;18.75;38.97
86048;BME280;76643;42.822;23.352;2024-03-29T08:31:07;95681.09;;;18.46;40.43
86048;BME280;76643;42.822;23.352;2024-03-29T08:33:35;95661.22;;;18.72;40.08
86048;BME280;76643;42.822;23.352;2024-03-29T08:36:05;95665.41;;;18.73;39.40
86048;BME280;76643;42.822;23.352;2024-03-29T08:38:31;95668.16;;;19.08;38.69
86048;BME280;76643;42.822;23.352;2024-03-29T08:40:56;95659.78;;;18.93;38.70
86048;BME280;76643;42.822;23.352;2024-03-29T08:43:22;95654.34;;;18.89;38.52
86048;BME280;76643;42.822;23.352;2024-03-29T08:45:47;95647.75;;;18.92;38.42
86048;BME280;76643;42.822;23.352;2024-03-29T08:48:13;95653.25;;;18.90;38.09
86048;BME280;76643;42.822;23.352;2024-03-29T08:50:39;95650.31;;;18.51;38.95
86048;BME280;76643;42.822;23.352;2024-03-29T08:53:05;95648.50;;;18.92;38.19
86048;BME280;76643;42.822;23.352;2024-03-29T08:55:32;95651.72;;;18.89;38.19
86048;BME280;76643;42.822;23.352;2024-03-29T08:57:58;95645.91;;;18.79;38.61
86048;BME280;76643;42.822;23.352;2024-03-29T09:00:27;95649.19;;;18.71;38.81
86048;BME280;76643;42.822;23.352;2024-03-29T09:02:53;95649.84;;;18.31;37.93
86048;BME280;76643;42.822;23.352;2024-03-29T09:05:19;95645.84;;;18.52;38.03
86048;BME280;76643;42.822;23.352;2024-03-29T09:07:45;95653.28;;;18.77;37.77
86048;BME280;76643;42.822;23.352;2024-03-29T09:10:11;95650.75;;;18.99;37.35
86048;BME280;76643;42.822;23.352;2024-03-29T09:12:37;95647.31;;;18.58;36.20
86048;BME280;76643;42.822;23.352;2024-03-29T09:15:03;95646.25;;;18.72;36.92
86048;BME280;76643;42.822;23.352;2024-03-29T09:17:34;95642.00;;;18.90;36.07
86048;BME280;76643;42.822;23.352;2024-03-29T09:19:59;95640.06;;;18.82;36.61
86048;BME280;76643;42.822;23.352;2024-03-29T09:22:25;95634.19;;;19.53;37.72
86048;BME280;76643;42.822;23.352;2024-03-29T09:24:50;95626.81;;;19.41;37.19
86048;BME280;76643;42.822;23.352;2024-03-29T09:27:16;95621.56;;;19.77;34.23
86048;BME280;76643;42.822;23.352;2024-03-29T09:29:42;95612.63;;;19.42;36.02
86048;BME280;76643;42.822;23.352;2024-03-29T09:32:08;95618.25;;;19.49;35.79
86048;BME280;76643;42.822;23.352;2024-03-29T09:34:34;95613.47;;;20.09;34.82
86048;BME280;76643;42.822;23.352;2024-03-29T09:36:59;95605.28;;;20.10;31.87
86048;BME280;76643;42.822;23.352;2024-03-29T09:39:25;95611.00;;;20.12;31.97
86048;BME280;76643;42.822;23.352;2024-03-29T09:41:50;95609.59;;;20.29;33.80
86048;BME280;76643;42.822;23.352;2024-03-29T09:44:19;95601.81;;;19.44;32.83
86048;BME280;76643;42.822;23.352;2024-03-29T09:46:46;95589.09;;;20.17;33.09
86048;BME280;76643;42.822;23.352;2024-03-29T09:49:13;95598.59;;;19.47;31.75
86048;BME280;76643;42.822;23.352;2024-03-29T09:51:39;95599.00;;;19.98;32.11
86048;BME280;76643;42.822;23.352;2024-03-29T09:54:06;95591.66;;;20.08;31.68
86048;BME280;76643;42.822;23.352;2024-03-29T09:56:38;95589.41;;;20.16;31.62
86048;BME280;76643;42.822;23.352;2024-03-29T09:59:03;95593.13;;;20.45;30.45
86048;BME280;76643;42.822;23.352;2024-03-29T10:01:30;95584.03;;;20.51;30.78
86048;BME280;76643;42.822;23.352;2024-03-29T10:03:56;95582.16;;;20.91;31.21
86048;BME280;76643;42.822;23.352;2024-03-29T10:06:24;95575.44;;;21.16;30.84
86048;BME280;76643;42.822;23.352;2024-03-29T10:08:50;95578.38;;;21.14;28.92
86048;BME280;76643;42.822;23.352;2024-03-29T10:11:16;95575.94;;;21.52;29.87
86048;BME280;76643;42.822;23.352;2024-03-29T10:13:43;95568.47;;;21.11;31.54
86048;BME280;76643;42.822;23.352;2024-03-29T10:16:10;95568.47;;;21.28;31.00
86048;BME280;76643;42.822;23.352;2024-03-29T10:18:37;95572.38;;;21.39;29.89
86048;BME280;76643;42.822;23.352;2024-03-29T10:21:04;95565.53;;;21.21;28.71
86048;BME280;76643;42.822;23.352;2024-03-29T10:23:31;95566.94;;;21.19;30.31
86048;BME280;76643;42.822;23.352;2024-03-29T10:25:57;95559.66;;;21.24;29.32
86048;BME280;76643;42.822;23.352;2024-03-29T10:28:23;95568.16;;;21.21;27.68
86048;BME280;76643;42.822;23.352;2024-03-29T10:30:49;95568.19;;;21.55;29.63
86048;BME280;76643;42.822;23.352;2024-03-29T10:33:18;95564.13;;;22.09;29.10
86048;BME280;76643;42.822;23.352;2024-03-29T10:35:44;95561.88;;;22.37;28.73
86048;BME280;76643;42.822;23.352;2024-03-29T10:38:10;95555.25;;;22.77;27.37
86048;BME280;76643;42.822;23.352;2024-03-29T10:40:38;95559.38;;;21.60;27.05
86048;BME280;76643;42.822;23.352;2024-03-29T10:43:04;95554.22;;;21.72;26.50
86048;BME280;76643;42.822;23.352;2024-03-29T10:45:34;95548.25;;;22.35;27.65
86048;BME280;76643;42.822;23.352;2024-03-29T10:48:02;95547.00;;;22.78;27.73
86048;BME280;76643;42.822;23.352;2024-03-29T10:50:31;95538.66;;;22.97;27.84
86048;BME280;76643;42.822;23.352;2024-03-29T10:52:59;95537.84;;;22.76;26.00
86048;BME280;76643;42.822;23.352;2024-03-29T10:55:28;95538.75;;;23.09;27.29
86048;BME280;76643;42.822;23.352;2024-03-29T10:57:55;95520.72;;;23.11;27.97
86048;BME280;76643;42.822;23.352;2024-03-29T11:00:23;95532.78;;;22.91;26.07
86048;BME280;76643;42.822;23.352;2024-03-29T11:03:09;95534.28;;;23.01;28.46
86048;BME280;76643;42.822;23.352;2024-03-29T11:05:42;95535.19;;;23.34;28.96
86048;BME280;76643;42.822;23.352;2024-03-29T11:08:13;95541.69;;;23.37;28.30
86048;BME280;76643;42.822;23.352;2024-03-29T11:10:42;95536.56;;;22.44;29.37
86048;BME280;76643;42.822;23.352;2024-03-29T11:16:14;95532.94;;;22.66;28.96
86048;BME280;76643;42.822;23.352;2024-03-29T11:18:48;95532.56;;;22.38;30.23
86048;BME280;76643;42.822;23.352;2024-03-29T11:21:15;95531.09;;;23.16;28.42
86048;BME280;76643;42.822;23.352;2024-03-29T11:23:48;95534.97;;;22.89;28.54
86048;BME280;76643;42.822;23.352;2024-03-29T11:26:15;95536.25;;;23.13;28.69
86048;BME280;76643;42.822;23.352;2024-03-29T11:28:41;95520.16;;;23.26;27.45
86048;BME280;76643;42.822;23.352;2024-03-29T11:31:09;95529.44;;;22.45;28.59
86048;BME280;76643;42.822;23.352;2024-03-29T11:36:15;95518.25;;;23.06;29.13
86048;BME280;76643;42.822;23.352;2024-03-29T11:38:44;95529.56;;;22.86;30.60
86048;BME280;76643;42.822;23.352;2024-03-29T11:41:14;95520.31;;;23.50;26.57
86048;BME280;76643;42.822;23.352;2024-03-29T11:43:41;95514.84;;;24.00;28.31
86048;BME280;76643;42.822;23.352;2024-03-29T11:46:13;95517.13;;;24.22;28.18
86048;BME280;76643;42.822;23.352;2024-03-29T11:48:39;95515.16;;;24.43;26.84
86048;BME280;76643;42.822;23.352;2024-03-29T11:51:06;95500.06;;;24.56;25.09
86048;BME280;76643;42.822;23.352;2024-03-29T11:53:33;95505.53;;;24.15;25.67
86048;BME280;76643;42.822;23.352;2024-03-29T11:56:02;95492.84;;;23.43;27.85
86048;BME280;76643;42.822;23.352;2024-03-29T11:58:30;95503.69;;;24.27;27.89
86048;BME280;76643;42.822;23.352;2024-03-29T12:00:57;95500.06;;;24.56;26.29
86048;BME280;76643;42.822;23.352;2024-03-29T12:03:25;95499.16;;;24.28;25.96
86048;BME280;76643;42.822;23.352;2024-03-29T12:05:52;95490.13;;;23.31;24.67
86048;BME280;76643;42.822;23.352;2024-03-29T12:08:24;95486.38;;;23.85;25.80
86048;BME280;76643;42.822;23.352;2024-03-29T12:10:51;95484.69;;;24.01;25.01
86048;BME280;76643;42.822;23.352;2024-03-29T12:13:17;95488.16;;;24.62;26.17
86048;BME280;76643;42.822;23.352;2024-03-29T12:15:43;95489.19;;;24.82;24.72
86048;BME280;76643;42.822;23.352;2024-03-29T12:18:09;95495.66;;;24.60;24.86
86048;BME280;76643;42.822;23.352;2024-03-29T12:20:36;95486.50;;;24.57;23.38
86048;BME280;76643;42.822;23.352;2024-03-29T12:23:06;95489.94;;;24.46;26.15
86048;BME280;76643;42.822;23.352;2024-03-29T12:25:33;95481.09;;;24.90;25.85
86048;BME280;76643;42.822;23.352;2024-03-29T12:27:59;95478.19;;;25.19;25.35
86048;BME280;76643;42.822;23.352;2024-03-29T12:30:25;95476.63;;;25.06;25.85
86048;BME280;76643;42.822;23.352;2024-03-29T12:33:04;95480.09;;;25.34;24.26
86048;BME280;76643;42.822;23.352;2024-03-29T12:35:32;95476.31;;;25.47;24.43
86048;BME280;76643;42.822;23.352;2024-03-29T12:37:59;95476.28;;;25.59;25.30
86048;BME280;76643;42.822;23.352;2024-03-29T12:40:26;95480.31;;;25.69;21.68
86048;BME280;76643;42.822;23.352;2024-03-29T12:42:53;95477.50;;;25.78;20.90
86048;BME280;76643;42.822;23.352;2024-03-29T12:45:19;95483.34;;;25.83;23.36
86048;BME280;76643;42.822;23.352;2024-03-29T12:47:49;95477.41;;;25.74;22.13
86048;BME280;76643;42.822;23.352;2024-03-29T12:50:32;95482.13;;;24.73;23.86
86048;BME280;76643;42.822;23.352;2024-03-29T12:53:07;95480.06;;;24.10;23.42
86048;BME280;76643;42.822;23.352;2024-03-29T12:55:33;95476.50;;;23.61;23.70
86048;BME280;76643;42.822;23.352;2024-03-29T12:58:05;95470.84;;;24.28;25.81